sensor_id;sensor_type;location;lat;lon;timestamp;P1;durP1;ratioP1;P2;durP2;ratioP2
26718;SDS011;14326;50.794;6.060;2023-05-07T00:02:22;15.77;;;6.30;;
26718;SDS011;14326;50.794;6.060;2023-05-07T00:04:49;15.77;;;5.47;;
26718;SDS011;14326;50.794;6.060;2023-05-07T00:07:17;14.73;;;5.22;;
26718;SDS011;14326;50.794;6.060;2023-05-07T00:09:44;14.63;;;5.60;;
26718;SDS011;14326;50.794;6.060;2023-05-07T00:12:10;16.58;;;5.60;;
26718;SDS011;14326;50.794;6.060;2023-05-07T00:14:38;14.43;;;5.97;;
26718;SDS011;14326;50.794;6.060;2023-05-07T00:17:05;13.60;;;5.30;;
26718;SDS011;14326;50.794;6.060;2023-05-07T00:19:31;13.57;;;5.63;;
26718;SDS011;14326;50.794;6.060;2023-05-07T00:21:58;14.38;;;5.22;;
26718;SDS011;14326;50.794;6.060;2023-05-07T00:24:24;16.98;;;5.68;;
26718;SDS011;14326;50.794;6.060;2023-05-07T00:27:03;14.98;;;5.60;;
26718;SDS011;14326;50.794;6.060;2023-05-07T00:29:30;11.13;;;4.60;;
26718;SDS011;14326;50.794;6.060;2023-05-07T00:32:02;16.60;;;6.18;;
26718;SDS011;14326;50.794;6.060;2023-05-07T00:34:32;14.68;;;5.43;;
26718;SDS011;14326;50.794;6.060;2023-05-07T00:36:58;15.88;;;5.30;;
26718;SDS011;14326;50.794;6.060;2023-05-07T00:39:31;14.45;;;5.63;;
26718;SDS011;14326;50.794;6.060;2023-05-07T00:42:00;15.70;;;5.45;;
26718;SDS011;14326;50.794;6.060;2023-05-07T00:44:27;11.00;;;3.92;;
26718;SDS011;14326;50.794;6.060;2023-05-07T00:46:55;13.90;;;5.60;;
26718;SDS011;14326;50.794;6.060;2023-05-07T00:49:23;16.55;;;5.30;;
26718;SDS011;14326;50.794;6.060;2023-05-07T00:51:59;14.88;;;5.40;;
26718;SDS011;14326;50.794;6.060;2023-05-07T00:54:26;13.68;;;5.05;;
26718;SDS011;14326;50.794;6.060;2023-05-07T00:56:53;15.40;;;5.72;;
26718;SDS011;14326;50.794;6.060;2023-05-07T00:59:21;13.63;;;5.20;;
26718;SDS011;14326;50.794;6.060;2023-05-07T01:01:48;14.55;;;5.72;;
26718;SDS011;14326;50.794;6.060;2023-05-07T01:04:14;13.55;;;5.55;;
26718;SDS011;14326;50.794;6.060;2023-05-07T01:06:42;14.57;;;5.63;;
26718;SDS011;14326;50.794;6.060;2023-05-07T01:09:11;15.45;;;5.72;;
26718;SDS011;14326;50.794;6.060;2023-05-07T01:11:38;13.43;;;4.88;;
26718;SDS011;14326;50.794;6.060;2023-05-07T01:14:07;13.70;;;5.00;;
26718;SDS011;14326;50.794;6.060;2023-05-07T01:16:44;13.23;;;5.20;;
26718;SDS011;14326;50.794;6.060;2023-05-07T01:19:11;15.80;;;5.35;;
26718;SDS011;14326;50.794;6.060;2023-05-07T01:21:43;15.45;;;4.50;;
26718;SDS011;14326;50.794;6.060;2023-05-07T01:24:13;14.40;;;5.57;;
26718;SDS011;14326;50.794;6.060;2023-05-07T01:26:41;15.23;;;5.13;;
26718;SDS011;14326;50.794;6.060;2023-05-07T01:29:08;17.35;;;5.07;;
26718;SDS011;14326;50.794;6.060;2023-05-07T01:31:35;12.23;;;4.72;;
26718;SDS011;14326;50.794;6.060;2023-05-07T01:34:03;14.68;;;4.70;;
26718;SDS011;14326;50.794;6.060;2023-05-07T01:36:32;14.05;;;4.82;;
26718;SDS011;14326;50.794;6.060;2023-05-07T01:39:00;9.57;;;3.83;;
26718;SDS011;14326;50.794;6.060;2023-05-07T01:41:29;12.52;;;4.93;;
26718;SDS011;14326;50.794;6.060;2023-05-07T01:43:56;16.50;;;4.97;;
26718;SDS011;14326;50.794;6.060;2023-05-07T01:46:25;12.73;;;4.68;;
26718;SDS011;14326;50.794;6.060;2023-05-07T01:48:52;15.85;;;4.88;;
26718;SDS011;14326;50.794;6.060;2023-05-07T01:51:19;14.18;;;4.60;;
26718;SDS011;14326;50.794;6.060;2023-05-07T01:53:58;11.90;;;4.75;;
26718;SDS011;14326;50.794;6.060;2023-05-07T01:56:44;11.52;;;4.30;;
26718;SDS011;14326;50.794;6.060;2023-05-07T01:59:13;12.32;;;4.65;;
26718;SDS011;14326;50.794;6.060;2023-05-07T02:01:39;12.23;;;4.63;;
26718;SDS011;14326;50.794;6.060;2023-05-07T02:04:06;16.42;;;4.57;;
26718;SDS011;14326;50.794;6.060;2023-05-07T02:06:32;12.90;;;4.28;;
26718;SDS011;14326;50.794;6.060;2023-05-07T02:08:59;13.35;;;4.63;;
26718;SDS011;14326;50.794;6.060;2023-05-07T02:11:25;10.85;;;4.30;;
26718;SDS011;14326;50.794;6.060;2023-05-07T02:13:53;14.80;;;5.40;;
26718;SDS011;14326;50.794;6.060;2023-05-07T02:16:20;12.98;;;3.83;;
26718;SDS011;14326;50.794;6.060;2023-05-07T02:18:47;13.23;;;4.50;;
26718;SDS011;14326;50.794;6.060;2023-05-07T02:21:17;11.60;;;4.45;;
26718;SDS011;14326;50.794;6.060;2023-05-07T02:23:44;12.95;;;4.32;;
26718;SDS011;14326;50.794;6.060;2023-05-07T02:26:10;15.25;;;4.85;;
26718;SDS011;14326;50.794;6.060;2023-05-07T02:28:37;13.05;;;4.28;;
26718;SDS011;14326;50.794;6.060;2023-05-07T02:31:05;13.23;;;4.38;;
26718;SDS011;14326;50.794;6.060;2023-05-07T02:33:31;13.70;;;4.70;;
26718;SDS011;14326;50.794;6.060;2023-05-07T02:36:05;12.43;;;5.07;;
26718;SDS011;14326;50.794;6.060;2023-05-07T02:38:33;14.15;;;5.22;;
26718;SDS011;14326;50.794;6.060;2023-05-07T02:41:00;14.30;;;4.75;;
26718;SDS011;14326;50.794;6.060;2023-05-07T02:43:26;12.20;;;4.95;;
26718;SDS011;14326;50.794;6.060;2023-05-07T02:46:02;12.75;;;4.70;;
26718;SDS011;14326;50.794;6.060;2023-05-07T02:48:31;14.93;;;4.32;;
26718;SDS011;14326;50.794;6.060;2023-05-07T02:50:58;14.00;;;4.97;;
26718;SDS011;14326;50.794;6.060;2023-05-07T02:53:25;10.98;;;4.43;;
26718;SDS011;14326;50.794;6.060;2023-05-07T02:55:52;15.15;;;5.28;;
26718;SDS011;14326;50.794;6.060;2023-05-07T02:58:19;19.80;;;4.93;;
26718;SDS011;14326;50.794;6.060;2023-05-07T03:00:45;12.00;;;4.53;;
26718;SDS011;14326;50.794;6.060;2023-05-07T03:03:13;12.95;;;5.00;;
26718;SDS011;14326;50.794;6.060;2023-05-07T03:05:40;16.02;;;4.88;;
26718;SDS011;14326;50.794;6.060;2023-05-07T03:08:07;11.27;;;4.57;;
26718;SDS011;14326;50.794;6.060;2023-05-07T03:10:34;13.25;;;4.45;;
26718;SDS011;14326;50.794;6.060;2023-05-07T03:13:01;13.20;;;4.68;;
26718;SDS011;14326;50.794;6.060;2023-05-07T03:15:28;14.25;;;4.60;;
26718;SDS011;14326;50.794;6.060;2023-05-07T03:17:57;11.90;;;4.78;;
26718;SDS011;14326;50.794;6.060;2023-05-07T03:20:34;15.07;;;5.25;;
26718;SDS011;14326;50.794;6.060;2023-05-07T03:23:01;13.98;;;4.68;;
26718;SDS011;14326;50.794;6.060;2023-05-07T03:25:28;14.07;;;5.10;;
26718;SDS011;14326;50.794;6.060;2023-05-07T03:27:55;13.35;;;5.20;;
26718;SDS011;14326;50.794;6.060;2023-05-07T03:30:21;15.65;;;5.15;;
26718;SDS011;14326;50.794;6.060;2023-05-07T03:32:48;13.13;;;4.75;;
26718;SDS011;14326;50.794;6.060;2023-05-07T03:35:15;13.95;;;4.72;;
26718;SDS011;14326;50.794;6.060;2023-05-07T03:37:43;14.60;;;5.05;;
26718;SDS011;14326;50.794;6.060;2023-05-07T03:40:18;11.45;;;4.65;;
26718;SDS011;14326;50.794;6.060;2023-05-07T03:42:53;15.70;;;4.88;;
26718;SDS011;14326;50.794;6.060;2023-05-07T03:45:43;14.85;;;4.82;;
26718;SDS011;14326;50.794;6.060;2023-05-07T03:51:05;14.75;;;4.88;;
26718;SDS011;14326;50.794;6.060;2023-05-07T03:53:41;13.32;;;4.50;;
26718;SDS011;14326;50.794;6.060;2023-05-07T03:56:24;11.80;;;4.40;;
26718;SDS011;14326;50.794;6.060;2023-05-07T03:59:21;10.32;;;4.13;;
26718;SDS011;14326;50.794;6.060;2023-05-07T04:01:48;15.45;;;4.68;;
26718;SDS011;14326;50.794;6.060;2023-05-07T04:04:15;14.48;;;4.90;;
26718;SDS011;14326;50.794;6.060;2023-05-07T04:06:41;10.68;;;4.63;;
26718;SDS011;14326;50.794;6.060;2023-05-07T04:09:09;14.60;;;4.85;;
26718;SDS011;14326;50.794;6.060;2023-05-07T04:11:36;14.43;;;4.72;;
26718;SDS011;14326;50.794;6.060;2023-05-07T04:14:05;12.38;;;4.75;;
26718;SDS011;14326;50.794;6.060;2023-05-07T04:16:31;14.60;;;4.80;;
26718;SDS011;14326;50.794;6.060;2023-05-07T04:18:58;14.23;;;4.80;;
26718;SDS011;14326;50.794;6.060;2023-05-07T04:21:24;12.52;;;4.85;;
26718;SDS011;14326;50.794;6.060;2023-05-07T04:23:52;13.70;;;4.85;;
26718;SDS011;14326;50.794;6.060;2023-05-07T04:26:20;15.98;;;5.25;;
26718;SDS011;14326;50.794;6.060;2023-05-07T04:28:48;7.65;;;3.50;;
26718;SDS011;14326;50.794;6.060;2023-05-07T04:31:15;15.20;;;4.43;;
26718;SDS011;14326;50.794;6.060;2023-05-07T04:33:41;15.73;;;5.00;;
26718;SDS011;14326;50.794;6.060;2023-05-07T04:36:13;14.23;;;5.20;;
26718;SDS011;14326;50.794;6.060;2023-05-07T04:38:43;12.88;;;4.80;;
26718;SDS011;14326;50.794;6.060;2023-05-07T04:41:09;15.07;;;5.28;;
26718;SDS011;14326;50.794;6.060;2023-05-07T04:43:40;14.57;;;5.07;;
26718;SDS011;14326;50.794;6.060;2023-05-07T04:46:07;15.45;;;5.30;;
26718;SDS011;14326;50.794;6.060;2023-05-07T04:48:34;18.00;;;5.70;;
26718;SDS011;14326;50.794;6.060;2023-05-07T04:51:00;12.85;;;4.80;;
26718;SDS011;14326;50.794;6.060;2023-05-07T04:53:27;13.55;;;5.47;;
26718;SDS011;14326;50.794;6.060;2023-05-07T04:55:56;14.02;;;5.05;;
26718;SDS011;14326;50.794;6.060;2023-05-07T04:58:37;12.90;;;5.13;;
26718;SDS011;14326;50.794;6.060;2023-05-07T05:01:20;14.90;;;5.90;;
26718;SDS011;14326;50.794;6.060;2023-05-07T05:03:46;13.85;;;5.57;;
26718;SDS011;14326;50.794;6.060;2023-05-07T05:06:15;14.75;;;5.50;;
26718;SDS011;14326;50.794;6.060;2023-05-07T05:08:44;12.80;;;5.30;;
26718;SDS011;14326;50.794;6.060;2023-05-07T05:11:10;15.10;;;5.10;;
26718;SDS011;14326;50.794;6.060;2023-05-07T05:13:37;12.45;;;4.90;;
26718;SDS011;14326;50.794;6.060;2023-05-07T05:16:05;15.52;;;5.80;;
26718;SDS011;14326;50.794;6.060;2023-05-07T05:18:32;14.40;;;5.70;;
26718;SDS011;14326;50.794;6.060;2023-05-07T05:20:59;12.93;;;4.82;;
26718;SDS011;14326;50.794;6.060;2023-05-07T05:23:26;14.95;;;5.55;;
26718;SDS011;14326;50.794;6.060;2023-05-07T05:25:55;14.77;;;5.68;;
26718;SDS011;14326;50.794;6.060;2023-05-07T05:28:22;15.25;;;5.60;;
26718;SDS011;14326;50.794;6.060;2023-05-07T05:31:01;12.38;;;4.65;;
26718;SDS011;14326;50.794;6.060;2023-05-07T05:33:32;16.33;;;5.90;;
26718;SDS011;14326;50.794;6.060;2023-05-07T05:35:58;14.48;;;5.40;;
26718;SDS011;14326;50.794;6.060;2023-05-07T05:38:28;14.38;;;5.32;;
26718;SDS011;14326;50.794;6.060;2023-05-07T05:40:54;15.10;;;5.15;;
26718;SDS011;14326;50.794;6.060;2023-05-07T05:43:21;12.65;;;4.93;;
26718;SDS011;14326;50.794;6.060;2023-05-07T05:45:47;13.45;;;5.25;;
26718;SDS011;14326;50.794;6.060;2023-05-07T05:48:14;15.13;;;5.38;;
26718;SDS011;14326;50.794;6.060;2023-05-07T05:50:42;11.27;;;4.57;;
26718;SDS011;14326;50.794;6.060;2023-05-07T05:53:09;14.82;;;4.95;;
26718;SDS011;14326;50.794;6.060;2023-05-07T05:55:36;17.83;;;5.40;;
26718;SDS011;14326;50.794;6.060;2023-05-07T05:58:02;12.07;;;4.63;;
26718;SDS011;14326;50.794;6.060;2023-05-07T06:00:29;11.75;;;4.53;;
26718;SDS011;14326;50.794;6.060;2023-05-07T06:02:56;12.88;;;4.28;;
26718;SDS011;14326;50.794;6.060;2023-05-07T06:05:22;13.77;;;4.85;;
26718;SDS011;14326;50.794;6.060;2023-05-07T06:07:50;12.27;;;5.03;;
26718;SDS011;14326;50.794;6.060;2023-05-07T06:10:17;14.52;;;4.22;;
26718;SDS011;14326;50.794;6.060;2023-05-07T06:12:44;12.30;;;4.35;;
26718;SDS011;14326;50.794;6.060;2023-05-07T06:15:10;11.65;;;4.20;;
26718;SDS011;14326;50.794;6.060;2023-05-07T06:17:37;15.75;;;4.97;;
26718;SDS011;14326;50.794;6.060;2023-05-07T06:20:04;12.38;;;4.80;;
26718;SDS011;14326;50.794;6.060;2023-05-07T06:22:32;11.50;;;4.28;;
26718;SDS011;14326;50.794;6.060;2023-05-07T06:25:00;11.95;;;4.38;;
26718;SDS011;14326;50.794;6.060;2023-05-07T06:27:27;10.93;;;3.90;;
26718;SDS011;14326;50.794;6.060;2023-05-07T06:29:53;11.57;;;4.50;;
26718;SDS011;14326;50.794;6.060;2023-05-07T06:32:20;12.55;;;4.25;;
26718;SDS011;14326;50.794;6.060;2023-05-07T06:34:46;11.68;;;4.13;;
26718;SDS011;14326;50.794;6.060;2023-05-07T06:37:13;13.98;;;4.47;;
26718;SDS011;14326;50.794;6.060;2023-05-07T06:39:40;11.05;;;4.22;;
26718;SDS011;14326;50.794;6.060;2023-05-07T06:42:08;12.80;;;4.55;;
26718;SDS011;14326;50.794;6.060;2023-05-07T06:44:37;11.63;;;4.03;;
26718;SDS011;14326;50.794;6.060;2023-05-07T06:47:17;13.70;;;4.68;;
26718;SDS011;14326;50.794;6.060;2023-05-07T06:49:44;11.00;;;3.95;;
26718;SDS011;14326;50.794;6.060;2023-05-07T06:52:11;14.95;;;5.05;;
26718;SDS011;14326;50.794;6.060;2023-05-07T06:54:37;14.45;;;5.07;;
26718;SDS011;14326;50.794;6.060;2023-05-07T06:57:04;17.83;;;5.68;;
26718;SDS011;14326;50.794;6.060;2023-05-07T06:59:32;15.70;;;4.97;;
26718;SDS011;14326;50.794;6.060;2023-05-07T07:01:58;13.48;;;4.50;;
26718;SDS011;14326;50.794;6.060;2023-05-07T07:04:25;10.45;;;3.20;;
26718;SDS011;14326;50.794;6.060;2023-05-07T07:06:52;9.60;;;3.15;;
26718;SDS011;14326;50.794;6.060;2023-05-07T07:09:20;10.15;;;2.85;;
26718;SDS011;14326;50.794;6.060;2023-05-07T07:11:46;12.20;;;2.88;;
26718;SDS011;14326;50.794;6.060;2023-05-07T07:14:13;10.32;;;2.70;;
26718;SDS011;14326;50.794;6.060;2023-05-07T07:16:41;5.90;;;2.47;;
26718;SDS011;14326;50.794;6.060;2023-05-07T07:19:07;7.20;;;2.75;;
26718;SDS011;14326;50.794;6.060;2023-05-07T07:21:34;8.85;;;2.92;;
26718;SDS011;14326;50.794;6.060;2023-05-07T07:24:01;11.57;;;2.92;;
26718;SDS011;14326;50.794;6.060;2023-05-07T07:26:27;9.05;;;2.90;;
26718;SDS011;14326;50.794;6.060;2023-05-07T07:28:57;10.48;;;3.10;;
26718;SDS011;14326;50.794;6.060;2023-05-07T07:31:23;9.93;;;2.35;;
26718;SDS011;14326;50.794;6.060;2023-05-07T07:33:51;9.15;;;2.70;;
26718;SDS011;14326;50.794;6.060;2023-05-07T07:36:18;7.95;;;3.00;;
26718;SDS011;14326;50.794;6.060;2023-05-07T07:38:44;11.35;;;3.25;;
26718;SDS011;14326;50.794;6.060;2023-05-07T07:41:11;9.32;;;3.20;;
26718;SDS011;14326;50.794;6.060;2023-05-07T07:43:37;10.27;;;3.00;;
26718;SDS011;14326;50.794;6.060;2023-05-07T07:46:04;9.50;;;2.90;;
26718;SDS011;14326;50.794;6.060;2023-05-07T07:48:30;11.80;;;2.65;;
26718;SDS011;14326;50.794;6.060;2023-05-07T07:50:58;11.15;;;3.28;;
26718;SDS011;14326;50.794;6.060;2023-05-07T07:53:25;9.38;;;3.30;;
26718;SDS011;14326;50.794;6.060;2023-05-07T07:55:51;11.77;;;3.13;;
26718;SDS011;14326;50.794;6.060;2023-05-07T07:58:18;8.80;;;2.70;;
26718;SDS011;14326;50.794;6.060;2023-05-07T08:00:45;9.10;;;2.97;;
26718;SDS011;14326;50.794;6.060;2023-05-07T08:03:12;7.80;;;2.28;;
26718;SDS011;14326;50.794;6.060;2023-05-07T08:05:39;10.38;;;2.65;;
26718;SDS011;14326;50.794;6.060;2023-05-07T08:08:07;7.82;;;2.67;;
26718;SDS011;14326;50.794;6.060;2023-05-07T08:10:34;8.10;;;2.22;;
26718;SDS011;14326;50.794;6.060;2023-05-07T08:13:03;7.78;;;2.58;;
26718;SDS011;14326;50.794;6.060;2023-05-07T08:15:30;9.00;;;3.00;;
26718;SDS011;14326;50.794;6.060;2023-05-07T08:17:57;8.93;;;3.10;;
26718;SDS011;14326;50.794;6.060;2023-05-07T08:20:25;10.98;;;3.30;;
26718;SDS011;14326;50.794;6.060;2023-05-07T08:22:51;7.90;;;3.28;;
26718;SDS011;14326;50.794;6.060;2023-05-07T08:25:19;15.68;;;5.13;;
26718;SDS011;14326;50.794;6.060;2023-05-07T08:27:46;8.63;;;2.65;;
26718;SDS011;14326;50.794;6.060;2023-05-07T08:30:13;10.15;;;3.78;;
26718;SDS011;14326;50.794;6.060;2023-05-07T08:32:40;9.05;;;2.90;;
26718;SDS011;14326;50.794;6.060;2023-05-07T08:35:07;9.80;;;2.80;;
26718;SDS011;14326;50.794;6.060;2023-05-07T08:37:34;9.60;;;2.85;;
26718;SDS011;14326;50.794;6.060;2023-05-07T08:40:01;4.38;;;1.95;;
26718;SDS011;14326;50.794;6.060;2023-05-07T08:42:29;6.10;;;2.28;;
26718;SDS011;14326;50.794;6.060;2023-05-07T08:44:57;7.53;;;1.80;;
26718;SDS011;14326;50.794;6.060;2023-05-07T08:47:29;9.75;;;2.30;;
26718;SDS011;14326;50.794;6.060;2023-05-07T08:50:05;8.75;;;2.10;;
26718;SDS011;14326;50.794;6.060;2023-05-07T08:52:33;11.10;;;2.60;;
26718;SDS011;14326;50.794;6.060;2023-05-07T08:55:01;6.63;;;2.05;;
26718;SDS011;14326;50.794;6.060;2023-05-07T08:57:31;13.07;;;2.05;;
26718;SDS011;14326;50.794;6.060;2023-05-07T08:59:57;10.05;;;2.22;;
26718;SDS011;14326;50.794;6.060;2023-05-07T09:02:24;5.68;;;1.77;;
26718;SDS011;14326;50.794;6.060;2023-05-07T09:04:51;6.13;;;1.83;;
26718;SDS011;14326;50.794;6.060;2023-05-07T09:07:18;8.18;;;2.20;;
26718;SDS011;14326;50.794;6.060;2023-05-07T09:09:45;5.97;;;2.30;;
26718;SDS011;14326;50.794;6.060;2023-05-07T09:12:12;11.57;;;2.40;;
26718;SDS011;14326;50.794;6.060;2023-05-07T09:14:40;16.88;;;2.75;;
26718;SDS011;14326;50.794;6.060;2023-05-07T09:17:07;9.98;;;2.17;;
26718;SDS011;14326;50.794;6.060;2023-05-07T09:19:33;8.43;;;2.60;;
26718;SDS011;14326;50.794;6.060;2023-05-07T09:22:00;7.18;;;2.05;;
26718;SDS011;14326;50.794;6.060;2023-05-07T09:24:27;8.70;;;1.92;;
26718;SDS011;14326;50.794;6.060;2023-05-07T09:26:58;8.43;;;2.05;;
26718;SDS011;14326;50.794;6.060;2023-05-07T09:29:26;9.35;;;2.38;;
26718;SDS011;14326;50.794;6.060;2023-05-07T09:32:02;6.53;;;1.80;;
26718;SDS011;14326;50.794;6.060;2023-05-07T09:37:33;9.52;;;1.98;;
26718;SDS011;14326;50.794;6.060;2023-05-07T09:40:00;7.38;;;1.73;;
26718;SDS011;14326;50.794;6.060;2023-05-07T09:45:36;6.97;;;1.73;;
26718;SDS011;14326;50.794;6.060;2023-05-07T09:48:34;7.97;;;1.88;;
26718;SDS011;14326;50.794;6.060;2023-05-07T09:51:30;11.02;;;2.33;;
26718;SDS011;14326;50.794;6.060;2023-05-07T09:57:02;7.82;;;1.80;;
26718;SDS011;14326;50.794;6.060;2023-05-07T09:59:32;6.90;;;1.80;;
26718;SDS011;14326;50.794;6.060;2023-05-07T10:02:07;4.40;;;1.73;;
26718;SDS011;14326;50.794;6.060;2023-05-07T10:04:37;5.70;;;1.70;;
26718;SDS011;14326;50.794;6.060;2023-05-07T10:07:05;6.70;;;2.00;;
26718;SDS011;14326;50.794;6.060;2023-05-07T10:09:34;11.38;;;2.35;;
26718;SDS011;14326;50.794;6.060;2023-05-07T10:12:03;4.07;;;1.92;;
26718;SDS011;14326;50.794;6.060;2023-05-07T10:14:31;7.88;;;1.98;;
26718;SDS011;14326;50.794;6.060;2023-05-07T10:17:00;4.13;;;1.70;;
26718;SDS011;14326;50.794;6.060;2023-05-07T10:19:47;7.28;;;1.75;;
26718;SDS011;14326;50.794;6.060;2023-05-07T10:22:15;5.23;;;1.90;;
26718;SDS011;14326;50.794;6.060;2023-05-07T10:24:42;5.03;;;2.00;;
26718;SDS011;14326;50.794;6.060;2023-05-07T10:27:11;5.88;;;1.85;;
26718;SDS011;14326;50.794;6.060;2023-05-07T10:29:43;4.50;;;1.30;;
26718;SDS011;14326;50.794;6.060;2023-05-07T10:32:23;6.35;;;1.88;;
26718;SDS011;14326;50.794;6.060;2023-05-07T10:35:01;5.40;;;1.50;;
26718;SDS011;14326;50.794;6.060;2023-05-07T10:37:30;5.18;;;1.63;;
26718;SDS011;14326;50.794;6.060;2023-05-07T10:39:58;5.20;;;1.73;;
26718;SDS011;14326;50.794;6.060;2023-05-07T10:42:25;3.70;;;1.67;;
26718;SDS011;14326;50.794;6.060;2023-05-07T10:44:51;6.60;;;1.90;;
26718;SDS011;14326;50.794;6.060;2023-05-07T10:47:18;5.72;;;2.10;;
26718;SDS011;14326;50.794;6.060;2023-05-07T11:04:21;8.00;;;2.20;;
26718;SDS011;14326;50.794;6.060;2023-05-07T11:07:29;11.02;;;2.80;;
26718;SDS011;14326;50.794;6.060;2023-05-07T11:12:49;4.25;;;1.73;;
26718;SDS011;14326;50.794;6.060;2023-05-07T11:18:09;5.53;;;2.05;;
26718;SDS011;14326;50.794;6.060;2023-05-07T11:20:47;5.72;;;2.08;;
26718;SDS011;14326;50.794;6.060;2023-05-07T11:26:44;8.70;;;2.28;;
26718;SDS011;14326;50.794;6.060;2023-05-07T11:29:14;7.07;;;2.20;;
26718;SDS011;14326;50.794;6.060;2023-05-07T11:31:42;7.57;;;1.95;;
26718;SDS011;14326;50.794;6.060;2023-05-07T11:34:08;8.60;;;2.47;;
26718;SDS011;14326;50.794;6.060;2023-05-07T11:36:35;11.52;;;2.35;;
26718;SDS011;14326;50.794;6.060;2023-05-07T11:39:22;12.20;;;2.78;;
26718;SDS011;14326;50.794;6.060;2023-05-07T11:41:51;11.95;;;2.92;;
26718;SDS011;14326;50.794;6.060;2023-05-07T11:44:18;9.60;;;2.40;;
26718;SDS011;14326;50.794;6.060;2023-05-07T11:46:44;15.00;;;2.88;;
26718;SDS011;14326;50.794;6.060;2023-05-07T11:49:11;9.70;;;3.05;;
26718;SDS011;14326;50.794;6.060;2023-05-07T11:51:38;12.80;;;2.88;;
26718;SDS011;14326;50.794;6.060;2023-05-07T11:54:06;8.07;;;2.65;;
26718;SDS011;14326;50.794;6.060;2023-05-07T11:56:33;10.75;;;2.90;;
26718;SDS011;14326;50.794;6.060;2023-05-07T11:59:02;9.57;;;2.75;;
26718;SDS011;14326;50.794;6.060;2023-05-07T12:01:29;10.63;;;3.15;;
26718;SDS011;14326;50.794;6.060;2023-05-07T12:03:55;10.75;;;3.75;;
26718;SDS011;14326;50.794;6.060;2023-05-07T12:06:22;14.32;;;5.00;;
26718;SDS011;14326;50.794;6.060;2023-05-07T12:08:48;16.67;;;5.65;;
26718;SDS011;14326;50.794;6.060;2023-05-07T12:11:15;18.20;;;6.05;;
26718;SDS011;14326;50.794;6.060;2023-05-07T12:13:47;20.25;;;6.60;;
26718;SDS011;14326;50.794;6.060;2023-05-07T12:19:36;21.58;;;7.13;;
26718;SDS011;14326;50.794;6.060;2023-05-07T12:22:03;19.65;;;6.90;;
26718;SDS011;14326;50.794;6.060;2023-05-07T12:24:41;21.02;;;7.10;;
26718;SDS011;14326;50.794;6.060;2023-05-07T12:30:08;17.27;;;7.63;;
26718;SDS011;14326;50.794;6.060;2023-05-07T12:35:04;19.30;;;7.15;;
26718;SDS011;14326;50.794;6.060;2023-05-07T12:37:32;24.02;;;8.05;;
26718;SDS011;14326;50.794;6.060;2023-05-07T12:40:05;20.00;;;8.50;;
26718;SDS011;14326;50.794;6.060;2023-05-07T12:42:35;19.60;;;8.30;;
26718;SDS011;14326;50.794;6.060;2023-05-07T12:45:07;21.27;;;8.50;;
26718;SDS011;14326;50.794;6.060;2023-05-07T12:47:34;21.80;;;8.15;;
26718;SDS011;14326;50.794;6.060;2023-05-07T12:50:01;17.40;;;7.88;;
26718;SDS011;14326;50.794;6.060;2023-05-07T12:52:31;22.08;;;8.13;;
26718;SDS011;14326;50.794;6.060;2023-05-07T12:54:58;19.80;;;7.85;;
26718;SDS011;14326;50.794;6.060;2023-05-07T12:57:31;22.92;;;7.90;;
26718;SDS011;14326;50.794;6.060;2023-05-07T13:00:04;17.38;;;6.90;;
26718;SDS011;14326;50.794;6.060;2023-05-07T13:02:32;19.35;;;6.45;;
26718;SDS011;14326;50.794;6.060;2023-05-07T13:04:59;18.95;;;6.60;;
26718;SDS011;14326;50.794;6.060;2023-05-07T13:07:30;17.95;;;6.32;;
26718;SDS011;14326;50.794;6.060;2023-05-07T13:10:12;19.05;;;6.63;;
26718;SDS011;14326;50.794;6.060;2023-05-07T13:12:39;18.38;;;6.18;;
26718;SDS011;14326;50.794;6.060;2023-05-07T13:15:06;16.83;;;5.82;;
26718;SDS011;14326;50.794;6.060;2023-05-07T13:17:33;15.82;;;5.90;;
26718;SDS011;14326;50.794;6.060;2023-05-07T13:20:00;17.23;;;5.72;;
26718;SDS011;14326;50.794;6.060;2023-05-07T13:22:27;17.38;;;6.35;;
26718;SDS011;14326;50.794;6.060;2023-05-07T13:24:55;15.80;;;5.88;;
26718;SDS011;14326;50.794;6.060;2023-05-07T13:27:21;15.90;;;5.78;;
26718;SDS011;14326;50.794;6.060;2023-05-07T13:29:48;15.85;;;5.57;;
26718;SDS011;14326;50.794;6.060;2023-05-07T13:32:14;17.42;;;5.70;;
26718;SDS011;14326;50.794;6.060;2023-05-07T13:34:41;17.17;;;6.00;;
26718;SDS011;14326;50.794;6.060;2023-05-07T13:37:10;18.25;;;5.47;;
26718;SDS011;14326;50.794;6.060;2023-05-07T13:39:42;15.10;;;5.18;;
26718;SDS011;14326;50.794;6.060;2023-05-07T13:42:11;13.48;;;5.28;;
26718;SDS011;14326;50.794;6.060;2023-05-07T13:44:37;16.67;;;5.47;;
26718;SDS011;14326;50.794;6.060;2023-05-07T13:47:04;14.80;;;5.47;;
26718;SDS011;14326;50.794;6.060;2023-05-07T13:49:30;15.15;;;5.25;;
26718;SDS011;14326;50.794;6.060;2023-05-07T13:54:38;10.88;;;3.65;;
26718;SDS011;14326;50.794;6.060;2023-05-07T13:57:05;13.57;;;4.72;;
26718;SDS011;14326;50.794;6.060;2023-05-07T13:59:42;15.07;;;4.80;;
26718;SDS011;14326;50.794;6.060;2023-05-07T14:02:47;14.77;;;4.57;;
26718;SDS011;14326;50.794;6.060;2023-05-07T14:05:15;17.65;;;5.70;;
26718;SDS011;14326;50.794;6.060;2023-05-07T14:07:42;18.90;;;5.80;;
26718;SDS011;14326;50.794;6.060;2023-05-07T14:10:09;14.50;;;4.75;;
26718;SDS011;14326;50.794;6.060;2023-05-07T14:12:42;13.13;;;4.47;;
26718;SDS011;14326;50.794;6.060;2023-05-07T14:15:23;14.50;;;4.38;;
26718;SDS011;14326;50.794;6.060;2023-05-07T14:18:11;10.80;;;3.40;;
26718;SDS011;14326;50.794;6.060;2023-05-07T14:20:44;16.15;;;4.28;;
26718;SDS011;14326;50.794;6.060;2023-05-07T14:23:13;10.57;;;3.63;;
26718;SDS011;14326;50.794;6.060;2023-05-07T14:25:42;14.70;;;4.13;;
26718;SDS011;14326;50.794;6.060;2023-05-07T14:28:09;12.35;;;3.72;;
26718;SDS011;14326;50.794;6.060;2023-05-07T14:30:42;11.85;;;3.60;;
26718;SDS011;14326;50.794;6.060;2023-05-07T14:33:41;9.85;;;3.30;;
26718;SDS011;14326;50.794;6.060;2023-05-07T14:36:24;10.57;;;3.22;;
26718;SDS011;14326;50.794;6.060;2023-05-07T14:38:52;13.57;;;4.20;;
26718;SDS011;14326;50.794;6.060;2023-05-07T14:41:19;12.48;;;3.63;;
26718;SDS011;14326;50.794;6.060;2023-05-07T14:43:57;11.57;;;3.80;;
26718;SDS011;14326;50.794;6.060;2023-05-07T14:46:37;11.77;;;3.60;;
26718;SDS011;14326;50.794;6.060;2023-05-07T14:49:04;13.18;;;3.60;;
26718;SDS011;14326;50.794;6.060;2023-05-07T14:51:30;9.68;;;3.58;;
26718;SDS011;14326;50.794;6.060;2023-05-07T14:53:58;14.70;;;4.40;;
26718;SDS011;14326;50.794;6.060;2023-05-07T14:56:25;12.13;;;3.83;;
26718;SDS011;14326;50.794;6.060;2023-05-07T14:58:51;10.85;;;3.67;;
26718;SDS011;14326;50.794;6.060;2023-05-07T15:01:19;12.13;;;3.95;;
26718;SDS011;14326;50.794;6.060;2023-05-07T15:03:48;13.35;;;3.95;;
26718;SDS011;14326;50.794;6.060;2023-05-07T15:06:14;13.77;;;4.05;;
26718;SDS011;14326;50.794;6.060;2023-05-07T15:08:41;10.63;;;3.35;;
26718;SDS011;14326;50.794;6.060;2023-05-07T15:11:07;13.75;;;3.67;;
26718;SDS011;14326;50.794;6.060;2023-05-07T15:13:37;13.23;;;3.95;;
26718;SDS011;14326;50.794;6.060;2023-05-07T15:16:32;11.25;;;3.75;;
26718;SDS011;14326;50.794;6.060;2023-05-07T15:19:14;10.98;;;3.10;;
26718;SDS011;14326;50.794;6.060;2023-05-07T15:22:15;11.43;;;3.13;;
26718;SDS011;14326;50.794;6.060;2023-05-07T15:27:47;9.52;;;2.95;;
26718;SDS011;14326;50.794;6.060;2023-05-07T15:30:40;7.28;;;2.72;;
26718;SDS011;14326;50.794;6.060;2023-05-07T15:33:08;9.57;;;2.65;;
26718;SDS011;14326;50.794;6.060;2023-05-07T15:35:36;9.20;;;2.70;;
26718;SDS011;14326;50.794;6.060;2023-05-07T15:38:03;12.02;;;3.80;;
26718;SDS011;14326;50.794;6.060;2023-05-07T15:40:30;12.40;;;3.30;;
26718;SDS011;14326;50.794;6.060;2023-05-07T15:43:02;11.23;;;3.13;;